sensor_id;sensor_type;location;lat;lon;timestamp;temperature;humidity
67769;DHT22;54569;52.018;5.584;2023-04-03T00:01:19;4.90;63.90
67769;DHT22;54569;52.018;5.584;2023-04-03T00:03:45;4.90;63.90
67769;DHT22;54569;52.018;5.584;2023-04-03T00:06:12;4.90;63.80
67769;DHT22;54569;52.018;5.584;2023-04-03T00:08:38;4.90;63.80
67769;DHT22;54569;52.018;5.584;2023-04-03T00:11:05;4.90;63.90
67769;DHT22;54569;52.018;5.584;2023-04-03T00:13:31;4.90;63.70
67769;DHT22;54569;52.018;5.584;2023-04-03T00:15:57;4.90;63.60
67769;DHT22;54569;52.018;5.584;2023-04-03T00:18:23;4.90;63.80
67769;DHT22;54569;52.018;5.584;2023-04-03T00:20:49;4.90;63.70
67769;DHT22;54569;52.018;5.584;2023-04-03T00:23:15;4.80;63.60
67769;DHT22;54569;52.018;5.584;2023-04-03T00:25:41;4.80;63.80
67769;DHT22;54569;52.018;5.584;2023-04-03T00:28:07;4.80;63.70
67769;DHT22;54569;52.018;5.584;2023-04-03T00:30:32;4.80;63.70
67769;DHT22;54569;52.018;5.584;2023-04-03T00:32:58;4.80;63.70
67769;DHT22;54569;52.018;5.584;2023-04-03T00:35:24;4.70;63.80
67769;DHT22;54569;52.018;5.584;2023-04-03T00:37:52;4.80;63.70
67769;DHT22;54569;52.018;5.584;2023-04-03T00:40:19;4.80;63.80
67769;DHT22;54569;52.018;5.584;2023-04-03T00:42:47;4.70;63.70
67769;DHT22;54569;52.018;5.584;2023-04-03T00:45:27;4.70;63.80
67769;DHT22;54569;52.018;5.584;2023-04-03T00:47:54;4.70;63.80
67769;DHT22;54569;52.018;5.584;2023-04-03T00:50:21;4.60;63.80
67769;DHT22;54569;52.018;5.584;2023-04-03T00:52:47;4.60;63.90
67769;DHT22;54569;52.018;5.584;2023-04-03T00:55:15;4.60;64.10
67769;DHT22;54569;52.018;5.584;2023-04-03T00:57:41;4.60;64.10
67769;DHT22;54569;52.018;5.584;2023-04-03T01:00:13;4.60;64.10
67769;DHT22;54569;52.018;5.584;2023-04-03T01:02:40;4.50;64.10
67769;DHT22;54569;52.018;5.584;2023-04-03T01:05:08;4.50;64.10
67769;DHT22;54569;52.018;5.584;2023-04-03T01:07:36;4.50;64.20
67769;DHT22;54569;52.018;5.584;2023-04-03T01:10:09;4.50;64.40
67769;DHT22;54569;52.018;5.584;2023-04-03T01:12:39;4.50;64.40
67769;DHT22;54569;52.018;5.584;2023-04-03T01:15:20;4.40;64.30
67769;DHT22;54569;52.018;5.584;2023-04-03T01:17:59;4.40;64.30
67769;DHT22;54569;52.018;5.584;2023-04-03T01:25:45;4.30;64.50
67769;DHT22;54569;52.018;5.584;2023-04-03T01:28:15;4.30;64.40
67769;DHT22;54569;52.018;5.584;2023-04-03T01:33:26;4.30;64.70
67769;DHT22;54569;52.018;5.584;2023-04-03T01:35:52;4.20;64.90
67769;DHT22;54569;52.018;5.584;2023-04-03T01:38:17;4.20;64.70
67769;DHT22;54569;52.018;5.584;2023-04-03T01:40:43;4.20;64.70
67769;DHT22;54569;52.018;5.584;2023-04-03T01:43:09;4.20;64.70
67769;DHT22;54569;52.018;5.584;2023-04-03T01:45:35;4.10;64.90
67769;DHT22;54569;52.018;5.584;2023-04-03T01:48:02;4.10;64.50
67769;DHT22;54569;52.018;5.584;2023-04-03T01:50:28;4.00;64.70
67769;DHT22;54569;52.018;5.584;2023-04-03T01:52:53;4.00;65.10
67769;DHT22;54569;52.018;5.584;2023-04-03T01:55:19;4.00;65.10
67769;DHT22;54569;52.018;5.584;2023-04-03T01:57:45;4.00;65.20
67769;DHT22;54569;52.018;5.584;2023-04-03T02:00:11;4.00;65.30
67769;DHT22;54569;52.018;5.584;2023-04-03T02:02:41;4.00;65.30
67769;DHT22;54569;52.018;5.584;2023-04-03T02:05:06;4.00;65.40
67769;DHT22;54569;52.018;5.584;2023-04-03T02:07:32;3.90;65.30
67769;DHT22;54569;52.018;5.584;2023-04-03T02:09:58;3.90;65.40
67769;DHT22;54569;52.018;5.584;2023-04-03T02:12:24;3.90;65.60
67769;DHT22;54569;52.018;5.584;2023-04-03T02:14:50;3.90;65.20
67769;DHT22;54569;52.018;5.584;2023-04-03T02:17:16;3.90;65.40
67769;DHT22;54569;52.018;5.584;2023-04-03T02:19:41;3.90;65.60
67769;DHT22;54569;52.018;5.584;2023-04-03T02:22:07;3.90;65.80
67769;DHT22;54569;52.018;5.584;2023-04-03T02:24:33;3.80;65.60
67769;DHT22;54569;52.018;5.584;2023-04-03T02:26:59;3.80;65.60
67769;DHT22;54569;52.018;5.584;2023-04-03T02:29:25;3.80;65.60
67769;DHT22;54569;52.018;5.584;2023-04-03T02:31:52;3.80;65.70
67769;DHT22;54569;52.018;5.584;2023-04-03T02:34:20;3.80;65.50
67769;DHT22;54569;52.018;5.584;2023-04-03T02:36:46;3.70;65.80
67769;DHT22;54569;52.018;5.584;2023-04-03T02:39:13;3.70;65.90
67769;DHT22;54569;52.018;5.584;2023-04-03T02:41:39;3.70;65.90
67769;DHT22;54569;52.018;5.584;2023-04-03T02:44:11;3.70;65.90
67769;DHT22;54569;52.018;5.584;2023-04-03T02:46:37;3.70;66.00
67769;DHT22;54569;52.018;5.584;2023-04-03T02:49:04;3.60;65.90
67769;DHT22;54569;52.018;5.584;2023-04-03T02:51:30;3.60;66.20
67769;DHT22;54569;52.018;5.584;2023-04-03T02:53:56;3.60;66.40
67769;DHT22;54569;52.018;5.584;2023-04-03T02:56:25;3.60;66.20
67769;DHT22;54569;52.018;5.584;2023-04-03T02:58:52;3.50;66.30
67769;DHT22;54569;52.018;5.584;2023-04-03T03:01:19;3.60;66.50
67769;DHT22;54569;52.018;5.584;2023-04-03T03:03:45;3.50;66.40
67769;DHT22;54569;52.018;5.584;2023-04-03T03:06:13;3.50;66.10
67769;DHT22;54569;52.018;5.584;2023-04-03T03:08:40;3.50;66.20
67769;DHT22;54569;52.018;5.584;2023-04-03T03:11:06;3.50;66.70
67769;DHT22;54569;52.018;5.584;2023-04-03T03:13:33;3.40;66.80
67769;DHT22;54569;52.018;5.584;2023-04-03T03:15:59;3.40;66.80
67769;DHT22;54569;52.018;5.584;2023-04-03T03:18:25;3.30;66.80
67769;DHT22;54569;52.018;5.584;2023-04-03T03:20:52;3.30;66.90
67769;DHT22;54569;52.018;5.584;2023-04-03T03:23:19;3.30;66.90
67769;DHT22;54569;52.018;5.584;2023-04-03T03:25:45;3.30;67.00
67769;DHT22;54569;52.018;5.584;2023-04-03T03:28:11;3.30;66.80
67769;DHT22;54569;52.018;5.584;2023-04-03T03:30:37;3.30;67.00
67769;DHT22;54569;52.018;5.584;2023-04-03T03:33:03;3.20;67.00
67769;DHT22;54569;52.018;5.584;2023-04-03T03:35:29;3.20;67.80
67769;DHT22;54569;52.018;5.584;2023-04-03T03:37:55;3.20;67.30
67769;DHT22;54569;52.018;5.584;2023-04-03T03:40:21;3.30;67.60
67769;DHT22;54569;52.018;5.584;2023-04-03T03:42:47;3.20;67.50
67769;DHT22;54569;52.018;5.584;2023-04-03T03:45:13;3.20;67.40
67769;DHT22;54569;52.018;5.584;2023-04-03T03:47:40;3.20;67.50
67769;DHT22;54569;52.018;5.584;2023-04-03T03:50:06;3.20;67.50
67769;DHT22;54569;52.018;5.584;2023-04-03T03:52:32;3.20;67.40
67769;DHT22;54569;52.018;5.584;2023-04-03T03:54:58;3.10;67.60
67769;DHT22;54569;52.018;5.584;2023-04-03T03:57:24;3.10;67.40
67769;DHT22;54569;52.018;5.584;2023-04-03T03:59:50;3.10;67.80
67769;DHT22;54569;52.018;5.584;2023-04-03T04:02:18;3.10;67.80
67769;DHT22;54569;52.018;5.584;2023-04-03T04:04:43;3.00;67.90
67769;DHT22;54569;52.018;5.584;2023-04-03T04:07:10;3.00;68.30
67769;DHT22;54569;52.018;5.584;2023-04-03T04:09:35;3.00;68.00
67769;DHT22;54569;52.018;5.584;2023-04-03T04:12:01;3.00;68.40
67769;DHT22;54569;52.018;5.584;2023-04-03T04:14:30;3.00;68.50
67769;DHT22;54569;52.018;5.584;2023-04-03T04:16:57;3.00;68.00
67769;DHT22;54569;52.018;5.584;2023-04-03T04:19:26;3.00;68.10
67769;DHT22;54569;52.018;5.584;2023-04-03T04:21:52;3.00;68.40
67769;DHT22;54569;52.018;5.584;2023-04-03T04:24:18;3.00;68.50
67769;DHT22;54569;52.018;5.584;2023-04-03T04:26:44;2.90;67.90
67769;DHT22;54569;52.018;5.584;2023-04-03T04:29:12;2.90;68.30
67769;DHT22;54569;52.018;5.584;2023-04-03T04:31:38;2.90;68.30
67769;DHT22;54569;52.018;5.584;2023-04-03T04:34:04;2.90;68.40
67769;DHT22;54569;52.018;5.584;2023-04-03T04:36:31;2.90;68.40
67769;DHT22;54569;52.018;5.584;2023-04-03T04:38:57;2.90;68.60
67769;DHT22;54569;52.018;5.584;2023-04-03T04:41:26;2.80;68.40
67769;DHT22;54569;52.018;5.584;2023-04-03T04:43:52;2.80;68.50
67769;DHT22;54569;52.018;5.584;2023-04-03T04:46:19;2.80;68.90
67769;DHT22;54569;52.018;5.584;2023-04-03T04:48:50;2.80;68.70
67769;DHT22;54569;52.018;5.584;2023-04-03T04:51:19;2.80;69.20
67769;DHT22;54569;52.018;5.584;2023-04-03T04:53:45;2.80;69.10
67769;DHT22;54569;52.018;5.584;2023-04-03T04:56:13;2.80;68.90
67769;DHT22;54569;52.018;5.584;2023-04-03T04:58:39;2.70;69.00
67769;DHT22;54569;52.018;5.584;2023-04-03T05:01:08;2.70;69.00
67769;DHT22;54569;52.018;5.584;2023-04-03T05:03:38;2.70;69.20
67769;DHT22;54569;52.018;5.584;2023-04-03T05:06:04;2.70;69.10
67769;DHT22;54569;52.018;5.584;2023-04-03T05:08:32;2.70;69.20
67769;DHT22;54569;52.018;5.584;2023-04-03T05:10:59;2.70;69.20
67769;DHT22;54569;52.018;5.584;2023-04-03T05:13:26;2.70;68.90
67769;DHT22;54569;52.018;5.584;2023-04-03T05:15:53;2.60;69.00
67769;DHT22;54569;52.018;5.584;2023-04-03T05:18:19;2.70;69.10
67769;DHT22;54569;52.018;5.584;2023-04-03T05:20:47;2.60;69.40
67769;DHT22;54569;52.018;5.584;2023-04-03T05:23:13;2.60;69.40
67769;DHT22;54569;52.018;5.584;2023-04-03T05:25:40;2.60;69.10
67769;DHT22;54569;52.018;5.584;2023-04-03T05:28:07;2.60;69.20
67769;DHT22;54569;52.018;5.584;2023-04-03T05:30:33;2.70;69.20
67769;DHT22;54569;52.018;5.584;2023-04-03T05:33:00;2.60;69.20
67769;DHT22;54569;52.018;5.584;2023-04-03T05:35:38;2.60;69.00
67769;DHT22;54569;52.018;5.584;2023-04-03T05:38:07;2.60;69.20
67769;DHT22;54569;52.018;5.584;2023-04-03T05:40:33;2.60;68.90
67769;DHT22;54569;52.018;5.584;2023-04-03T05:42:59;2.60;68.80
67769;DHT22;54569;52.018;5.584;2023-04-03T05:45:28;2.60;68.70
67769;DHT22;54569;52.018;5.584;2023-04-03T05:47:54;2.70;69.00
67769;DHT22;54569;52.018;5.584;2023-04-03T05:50:20;2.70;68.90
67769;DHT22;54569;52.018;5.584;2023-04-03T05:52:49;2.70;69.00
67769;DHT22;54569;52.018;5.584;2023-04-03T05:55:17;2.70;68.60
67769;DHT22;54569;52.018;5.584;2023-04-03T05:57:43;2.80;68.80
67769;DHT22;54569;52.018;5.584;2023-04-03T06:00:12;2.80;68.70
67769;DHT22;54569;52.018;5.584;2023-04-03T06:02:39;2.80;68.40
67769;DHT22;54569;52.018;5.584;2023-04-03T06:05:10;2.80;68.80
67769;DHT22;54569;52.018;5.584;2023-04-03T06:07:37;2.80;68.00
67769;DHT22;54569;52.018;5.584;2023-04-03T06:10:04;2.80;68.50
67769;DHT22;54569;52.018;5.584;2023-04-03T06:12:30;2.80;68.60
67769;DHT22;54569;52.018;5.584;2023-04-03T06:14:56;2.90;68.10
67769;DHT22;54569;52.018;5.584;2023-04-03T06:17:22;2.90;68.10
67769;DHT22;54569;52.018;5.584;2023-04-03T06:19:49;3.00;68.00
67769;DHT22;54569;52.018;5.584;2023-04-03T06:22:15;3.00;67.90
67769;DHT22;54569;52.018;5.584;2023-04-03T06:24:41;3.10;67.80
67769;DHT22;54569;52.018;5.584;2023-04-03T06:27:07;3.10;67.70
67769;DHT22;54569;52.018;5.584;2023-04-03T06:29:32;3.20;68.00
67769;DHT22;54569;52.018;5.584;2023-04-03T06:31:58;3.30;68.00
67769;DHT22;54569;52.018;5.584;2023-04-03T06:34:24;3.30;67.90
67769;DHT22;54569;52.018;5.584;2023-04-03T06:36:50;3.30;67.30
67769;DHT22;54569;52.018;5.584;2023-04-03T06:39:18;3.40;67.30
67769;DHT22;54569;52.018;5.584;2023-04-03T06:41:46;3.50;67.40
67769;DHT22;54569;52.018;5.584;2023-04-03T06:44:11;3.50;67.70
67769;DHT22;54569;52.018;5.584;2023-04-03T06:46:38;3.60;67.20
67769;DHT22;54569;52.018;5.584;2023-04-03T06:49:05;3.70;67.10
67769;DHT22;54569;52.018;5.584;2023-04-03T06:51:33;3.70;67.30
67769;DHT22;54569;52.018;5.584;2023-04-03T06:53:59;3.80;67.10
67769;DHT22;54569;52.018;5.584;2023-04-03T06:56:26;3.80;66.80
67769;DHT22;54569;52.018;5.584;2023-04-03T06:58:53;3.90;66.70
67769;DHT22;54569;52.018;5.584;2023-04-03T07:01:28;4.00;66.70
67769;DHT22;54569;52.018;5.584;2023-04-03T07:03:55;4.10;66.90
67769;DHT22;54569;52.018;5.584;2023-04-03T07:06:21;4.30;66.60
67769;DHT22;54569;52.018;5.584;2023-04-03T07:08:47;4.40;66.70
67769;DHT22;54569;52.018;5.584;2023-04-03T07:11:14;4.50;66.20
67769;DHT22;54569;52.018;5.584;2023-04-03T07:13:41;4.70;66.00
67769;DHT22;54569;52.018;5.584;2023-04-03T07:16:07;4.80;65.60
67769;DHT22;54569;52.018;5.584;2023-04-03T07:18:34;4.90;65.20
67769;DHT22;54569;52.018;5.584;2023-04-03T07:21:00;5.10;65.40
67769;DHT22;54569;52.018;5.584;2023-04-03T07:23:26;5.20;64.70
67769;DHT22;54569;52.018;5.584;2023-04-03T07:25:52;5.40;64.40
67769;DHT22;54569;52.018;5.584;2023-04-03T07:28:19;5.60;64.20
67769;DHT22;54569;52.018;5.584;2023-04-03T07:30:47;5.70;63.90
67769;DHT22;54569;52.018;5.584;2023-04-03T07:33:15;5.90;64.10
67769;DHT22;54569;52.018;5.584;2023-04-03T07:35:41;6.10;63.60
67769;DHT22;54569;52.018;5.584;2023-04-03T07:38:08;6.30;63.70
67769;DHT22;54569;52.018;5.584;2023-04-03T07:40:34;6.50;63.10
67769;DHT22;54569;52.018;5.584;2023-04-03T07:43:00;6.70;63.20
67769;DHT22;54569;52.018;5.584;2023-04-03T07:45:26;6.90;62.90
67769;DHT22;54569;52.018;5.584;2023-04-03T07:47:52;7.20;63.10
67769;DHT22;54569;52.018;5.584;2023-04-03T07:50:18;7.30;63.40
67769;DHT22;54569;52.018;5.584;2023-04-03T07:52:45;7.60;62.70
67769;DHT22;54569;52.018;5.584;2023-04-03T07:55:11;7.80;63.20
67769;DHT22;54569;52.018;5.584;2023-04-03T07:57:37;8.10;62.50
67769;DHT22;54569;52.018;5.584;2023-04-03T08:00:05;8.50;62.30
67769;DHT22;54569;52.018;5.584;2023-04-03T08:02:37;8.90;62.30
67769;DHT22;54569;52.018;5.584;2023-04-03T08:05:03;9.30;61.80
67769;DHT22;54569;52.018;5.584;2023-04-03T08:07:29;9.60;62.40
67769;DHT22;54569;52.018;5.584;2023-04-03T08:09:55;9.90;61.30
67769;DHT22;54569;52.018;5.584;2023-04-03T08:12:21;10.40;61.80
67769;DHT22;54569;52.018;5.584;2023-04-03T08:14:47;11.10;62.00
67769;DHT22;54569;52.018;5.584;2023-04-03T08:17:12;12.30;61.60
67769;DHT22;54569;52.018;5.584;2023-04-03T08:19:39;14.30;58.60
67769;DHT22;54569;52.018;5.584;2023-04-03T08:22:05;16.80;53.80
67769;DHT22;54569;52.018;5.584;2023-04-03T08:24:34;19.10;48.50
67769;DHT22;54569;52.018;5.584;2023-04-03T08:27:00;21.20;44.50
67769;DHT22;54569;52.018;5.584;2023-04-03T08:29:26;22.90;42.10
67769;DHT22;54569;52.018;5.584;2023-04-03T08:31:52;24.00;40.50
67769;DHT22;54569;52.018;5.584;2023-04-03T08:34:18;25.40;39.00
67769;DHT22;54569;52.018;5.584;2023-04-03T08:36:45;26.30;38.10
67769;DHT22;54569;52.018;5.584;2023-04-03T08:39:10;26.70;37.70
67769;DHT22;54569;52.018;5.584;2023-04-03T08:41:38;27.60;37.20
67769;DHT22;54569;52.018;5.584;2023-04-03T08:46:58;28.80;34.60
67769;DHT22;54569;52.018;5.584;2023-04-03T08:49:33;29.30;30.80
67769;DHT22;54569;52.018;5.584;2023-04-03T08:52:03;30.10;35.40
67769;DHT22;54569;52.018;5.584;2023-04-03T08:54:41;30.80;34.60
67769;DHT22;54569;52.018;5.584;2023-04-03T08:57:13;31.30;31.50
67769;DHT22;54569;52.018;5.584;2023-04-03T08:59:39;31.80;25.50
67769;DHT22;54569;52.018;5.584;2023-04-03T09:02:25;31.30;35.30
67769;DHT22;54569;52.018;5.584;2023-04-03T09:04:53;30.70;27.10
67769;DHT22;54569;52.018;5.584;2023-04-03T09:07:43;30.60;35.70
67769;DHT22;54569;52.018;5.584;2023-04-03T09:10:25;30.40;34.70
67769;DHT22;54569;52.018;5.584;2023-04-03T09:12:59;30.20;29.20
67769;DHT22;54569;52.018;5.584;2023-04-03T09:15:26;30.30;32.60
67769;DHT22;54569;52.018;5.584;2023-04-03T09:18:20;30.40;35.50
67769;DHT22;54569;52.018;5.584;2023-04-03T09:23:50;31.10;30.80
67769;DHT22;54569;52.018;5.584;2023-04-03T09:26:25;31.60;32.30
67769;DHT22;54569;52.018;5.584;2023-04-03T09:28:57;31.70;29.20
67769;DHT22;54569;52.018;5.584;2023-04-03T09:31:36;32.40;32.10
67769;DHT22;54569;52.018;5.584;2023-04-03T09:34:05;32.60;31.80
67769;DHT22;54569;52.018;5.584;2023-04-03T09:36:45;31.30;31.10
67769;DHT22;54569;52.018;5.584;2023-04-03T09:39:14;30.60;28.90
67769;DHT22;54569;52.018;5.584;2023-04-03T09:41:42;30.80;32.70
67769;DHT22;54569;52.018;5.584;2023-04-03T09:44:25;30.70;32.50
67769;DHT22;54569;52.018;5.584;2023-04-03T09:46:52;31.20;31.10
67769;DHT22;54569;52.018;5.584;2023-04-03T09:49:19;31.40;31.70
67769;DHT22;54569;52.018;5.584;2023-04-03T09:51:45;31.70;31.30
67769;DHT22;54569;52.018;5.584;2023-04-03T09:54:34;31.50;31.20
67769;DHT22;54569;52.018;5.584;2023-04-03T09:57:20;31.30;25.70
67769;DHT22;54569;52.018;5.584;2023-04-03T09:59:47;31.00;30.80
67769;DHT22;54569;52.018;5.584;2023-04-03T10:05:04;30.80;27.70
67769;DHT22;54569;52.018;5.584;2023-04-03T10:07:36;31.10;31.30
67769;DHT22;54569;52.018;5.584;2023-04-03T10:10:22;31.20;29.90
67769;DHT22;54569;52.018;5.584;2023-04-03T10:13:12;31.40;27.40
67769;DHT22;54569;52.018;5.584;2023-04-03T10:15:44;31.70;30.40
67769;DHT22;54569;52.018;5.584;2023-04-03T10:18:44;30.90;26.70
67769;DHT22;54569;52.018;5.584;2023-04-03T10:21:19;30.80;30.20
67769;DHT22;54569;52.018;5.584;2023-04-03T10:27:10;29.70;25.80
67769;DHT22;54569;52.018;5.584;2023-04-03T10:32:27;28.90;30.50
67769;DHT22;54569;52.018;5.584;2023-04-03T10:38:18;28.60;27.90
67769;DHT22;54569;52.018;5.584;2023-04-03T10:41:02;29.10;26.70
67769;DHT22;54569;52.018;5.584;2023-04-03T10:46:15;30.50;26.90
67769;DHT22;54569;52.018;5.584;2023-04-03T10:51:54;29.30;25.90
67769;DHT22;54569;52.018;5.584;2023-04-03T10:57:11;29.40;27.00
67769;DHT22;54569;52.018;5.584;2023-04-03T11:02:24;29.10;28.80
67769;DHT22;54569;52.018;5.584;2023-04-03T11:04:55;28.50;29.70
67769;DHT22;54569;52.018;5.584;2023-04-03T11:07:27;28.50;29.30
67769;DHT22;54569;52.018;5.584;2023-04-03T11:10:09;28.10;29.40
67769;DHT22;54569;52.018;5.584;2023-04-03T11:12:49;27.30;25.10
67769;DHT22;54569;52.018;5.584;2023-04-03T11:15:18;27.10;29.20
67769;DHT22;54569;52.018;5.584;2023-04-03T11:17:55;26.80;29.80
67769;DHT22;54569;52.018;5.584;2023-04-03T11:20:31;27.00;27.50
67769;DHT22;54569;52.018;5.584;2023-04-03T11:23:14;27.60;29.40
67769;DHT22;54569;52.018;5.584;2023-04-03T11:25:42;28.10;28.30
67769;DHT22;54569;52.018;5.584;2023-04-03T11:28:13;27.80;29.40
67769;DHT22;54569;52.018;5.584;2023-04-03T11:36:26;27.40;29.50
67769;DHT22;54569;52.018;5.584;2023-04-03T11:38:56;27.80;27.60
67769;DHT22;54569;52.018;5.584;2023-04-03T11:41:31;28.10;29.00
67769;DHT22;54569;52.018;5.584;2023-04-03T11:44:33;28.30;26.60
67769;DHT22;54569;52.018;5.584;2023-04-03T11:46:57;28.30;29.00
67769;DHT22;54569;52.018;5.584;2023-04-03T11:50:02;28.40;26.30
67769;DHT22;54569;52.018;5.584;2023-04-03T12:05:50;26.50;29.10
67769;DHT22;54569;52.018;5.584;2023-04-03T12:24:34;24.00;29.40
67769;DHT22;54569;52.018;5.584;2023-04-03T12:29:34;20.30;33.30
67769;DHT22;54569;52.018;5.584;2023-04-03T12:37:58;17.60;34.50
67769;DHT22;54569;52.018;5.584;2023-04-03T12:46:13;15.90;35.50
67769;DHT22;54569;52.018;5.584;2023-04-03T12:51:26;14.50;36.80
67769;DHT22;54569;52.018;5.584;2023-04-03T12:54:00;14.20;36.60
67769;DHT22;54569;52.018;5.584;2023-04-03T12:56:28;14.10;36.70
67769;DHT22;54569;52.018;5.584;2023-04-03T12:59:12;14.00;36.90
67769;DHT22;54569;52.018;5.584;2023-04-03T13:01:38;13.90;36.40
67769;DHT22;54569;52.018;5.584;2023-04-03T13:04:04;13.80;36.40
67769;DHT22;54569;52.018;5.584;2023-04-03T13:06:43;13.80;36.40
67769;DHT22;54569;52.018;5.584;2023-04-03T13:11:52;13.80;35.90
67769;DHT22;54569;52.018;5.584;2023-04-03T13:14:22;13.70;36.00
67769;DHT22;54569;52.018;5.584;2023-04-03T13:17:13;13.60;36.00
67769;DHT22;54569;52.018;5.584;2023-04-03T13:19:40;13.60;34.80
67769;DHT22;54569;52.018;5.584;2023-04-03T13:24:59;13.30;34.90
67769;DHT22;54569;52.018;5.584;2023-04-03T13:27:26;13.30;36.20
67769;DHT22;54569;52.018;5.584;2023-04-03T13:29:54;13.20;36.20
67769;DHT22;54569;52.018;5.584;2023-04-03T13:32:24;13.20;36.00
67769;DHT22;54569;52.018;5.584;2023-04-03T13:34:50;13.20;35.90
67769;DHT22;54569;52.018;5.584;2023-04-03T13:37:30;13.10;36.20
67769;DHT22;54569;52.018;5.584;2023-04-03T13:40:00;13.00;35.90
67769;DHT22;54569;52.018;5.584;2023-04-03T13:42:29;12.90;36.50
67769;DHT22;54569;52.018;5.584;2023-04-03T13:47:44;13.00;35.60
67769;DHT22;54569;52.018;5.584;2023-04-03T13:52:59;13.00;36.20
67769;DHT22;54569;52.018;5.584;2023-04-03T13:55:29;13.00;34.90
67769;DHT22;54569;52.018;5.584;2023-04-03T14:00:56;12.80;36.00
67769;DHT22;54569;52.018;5.584;2023-04-03T14:03:45;12.70;36.20
67769;DHT22;54569;52.018;5.584;2023-04-03T14:06:14;12.60;35.20
67769;DHT22;54569;52.018;5.584;2023-04-03T14:08:41;12.60;36.40
67769;DHT22;54569;52.018;5.584;2023-04-03T14:11:20;12.60;36.50
67769;DHT22;54569;52.018;5.584;2023-04-03T14:13:47;12.60;36.30
67769;DHT22;54569;52.018;5.584;2023-04-03T14:16:18;12.60;36.30
67769;DHT22;54569;52.018;5.584;2023-04-03T14:18:47;12.60;36.20
67769;DHT22;54569;52.018;5.584;2023-04-03T14:21:14;12.50;36.30
67769;DHT22;54569;52.018;5.584;2023-04-03T14:23:40;12.50;36.40
67769;DHT22;54569;52.018;5.584;2023-04-03T14:26:16;12.40;36.60
67769;DHT22;54569;52.018;5.584;2023-04-03T14:28:44;12.40;36.50
67769;DHT22;54569;52.018;5.584;2023-04-03T14:31:11;12.40;37.10
67769;DHT22;54569;52.018;5.584;2023-04-03T14:33:38;12.40;36.90
67769;DHT22;54569;52.018;5.584;2023-04-03T14:36:30;12.40;36.70
67769;DHT22;54569;52.018;5.584;2023-04-03T14:38:56;12.30;36.20
67769;DHT22;54569;52.018;5.584;2023-04-03T14:41:24;12.30;37.30
67769;DHT22;54569;52.018;5.584;2023-04-03T14:43:50;12.30;37.20
67769;DHT22;54569;52.018;5.584;2023-04-03T14:46:32;12.30;37.30
67769;DHT22;54569;52.018;5.584;2023-04-03T14:48:58;12.30;37.50
67769;DHT22;54569;52.018;5.584;2023-04-03T14:51:25;12.20;37.60
67769;DHT22;54569;52.018;5.584;2023-04-03T14:53:52;12.10;37.70
67769;DHT22;54569;52.018;5.584;2023-04-03T14:56:27;12.00;37.50
67769;DHT22;54569;52.018;5.584;2023-04-03T14:58:59;12.00;37.30
67769;DHT22;54569;52.018;5.584;2023-04-03T15:01:26;11.90;37.20
67769;DHT22;54569;52.018;5.584;2023-04-03T15:03:51;11.80;37.60
67769;DHT22;54569;52.018;5.584;2023-04-03T15:06:18;11.70;37.70
67769;DHT22;54569;52.018;5.584;2023-04-03T15:08:45;11.70;37.70
67769;DHT22;54569;52.018;5.584;2023-04-03T15:11:13;11.70;37.90
67769;DHT22;54569;52.018;5.584;2023-04-03T15:13:39;11.60;37.80
67769;DHT22;54569;52.018;5.584;2023-04-03T15:16:11;11.60;38.00
67769;DHT22;54569;52.018;5.584;2023-04-03T15:18:38;11.50;38.20
67769;DHT22;54569;52.018;5.584;2023-04-03T15:21:04;11.60;38.20
67769;DHT22;54569;52.018;5.584;2023-04-03T15:23:30;11.60;38.30
67769;DHT22;54569;52.018;5.584;2023-04-03T15:25:56;11.60;38.10
67769;DHT22;54569;52.018;5.584;2023-04-03T15:28:29;11.60;38.00
67769;DHT22;54569;52.018;5.584;2023-04-03T15:30:55;11.50;38.00
67769;DHT22;54569;52.018;5.584;2023-04-03T15:33:22;11.50;38.30
67769;DHT22;54569;52.018;5.584;2023-04-03T15:35:48;11.40;38.20
67769;DHT22;54569;52.018;5.584;2023-04-03T15:38:14;11.30;38.60
67769;DHT22;54569;52.018;5.584;2023-04-03T15:40:40;11.30;38.60
67769;DHT22;54569;52.018;5.584;2023-04-03T15:43:06;11.30;38.60
67769;DHT22;54569;52.018;5.584;2023-04-03T15:45:33;11.10;38.80
67769;DHT22;54569;52.018;5.584;2023-04-03T15:47:59;11.10;38.90
67769;DHT22;54569;52.018;5.584;2023-04-03T15:50:25;11.20;38.70
67769;DHT22;54569;52.018;5.584;2023-04-03T15:52:51;11.10;38.80
67769;DHT22;54569;52.018;5.584;2023-04-03T15:55:24;11.10;39.10
67769;DHT22;54569;52.018;5.584;2023-04-03T15:57:51;11.10;39.10
67769;DHT22;54569;52.018;5.584;2023-04-03T16:00:17;11.10;39.20
67769;DHT22;54569;52.018;5.584;2023-04-03T16:02:44;11.00;39.10
67769;DHT22;54569;52.018;5.584;2023-04-03T16:05:11;11.00;39.20
67769;DHT22;54569;52.018;5.584;2023-04-03T16:07:38;11.00;39.30
67769;DHT22;54569;52.018;5.584;2023-04-03T16:10:06;10.90;39.50
67769;DHT22;54569;52.018;5.584;2023-04-03T16:12:33;10.90;39.60
67769;DHT22;54569;52.018;5.584;2023-04-03T16:14:58;11.00;39.80
67769;DHT22;54569;52.018;5.584;2023-04-03T16:17:26;10.90;39.80
67769;DHT22;54569;52.018;5.584;2023-04-03T16:19:53;10.80;39.90
67769;DHT22;54569;52.018;5.584;2023-04-03T16:22:19;10.80;40.10
67769;DHT22;54569;52.018;5.584;2023-04-03T16:24:45;10.80;40.00
67769;DHT22;54569;52.018;5.584;2023-04-03T16:27:11;10.80;40.10
67769;DHT22;54569;52.018;5.584;2023-04-03T16:29:37;10.80;39.90
67769;DHT22;54569;52.018;5.584;2023-04-03T16:32:02;10.70;39.80
67769;DHT22;54569;52.018;5.584;2023-04-03T16:34:28;10.70;39.90
67769;DHT22;54569;52.018;5.584;2023-04-03T16:36:56;10.60;40.20
67769;DHT22;54569;52.018;5.584;2023-04-03T16:39:22;10.50;40.20
67769;DHT22;54569;52.018;5.584;2023-04-03T16:41:47;10.50;40.10
67769;DHT22;54569;52.018;5.584;2023-04-03T16:44:13;10.40;40.20
67769;DHT22;54569;52.018;5.584;2023-04-03T16:46:39;10.40;40.40
67769;DHT22;54569;52.018;5.584;2023-04-03T16:49:05;10.40;40.70
67769;DHT22;54569;52.018;5.584;2023-04-03T16:51:30;10.40;40.50
67769;DHT22;54569;52.018;5.584;2023-04-03T16:53:57;10.30;40.70
67769;DHT22;54569;52.018;5.584;2023-04-03T16:56:23;10.30;40.80
67769;DHT22;54569;52.018;5.584;2023-04-03T16:58:49;10.20;40.60
67769;DHT22;54569;52.018;5.584;2023-04-03T17:01:17;10.20;40.70
67769;DHT22;54569;52.018;5.584;2023-04-03T17:03:43;10.10;40.90
67769;DHT22;54569;52.018;5.584;2023-04-03T17:06:11;10.10;41.10
67769;DHT22;54569;52.018;5.584;2023-04-03T17:08:48;10.00;41.00
67769;DHT22;54569;52.018;5.584;2023-04-03T17:11:26;10.10;41.20
67769;DHT22;54569;52.018;5.584;2023-04-03T17:13:52;10.00;41.10
67769;DHT22;54569;52.018;5.584;2023-04-03T17:16:18;10.00;41.30
67769;DHT22;54569;52.018;5.584;2023-04-03T17:18:44;9.90;41.40
67769;DHT22;54569;52.018;5.584;2023-04-03T17:21:11;9.90;41.20
67769;DHT22;54569;52.018;5.584;2023-04-03T17:23:39;9.80;41.10
67769;DHT22;54569;52.018;5.584;2023-04-03T17:26:06;9.70;41.20
67769;DHT22;54569;52.018;5.584;2023-04-03T17:28:31;9.70;41.40
67769;DHT22;54569;52.018;5.584;2023-04-03T17:30:59;9.60;41.30
67769;DHT22;54569;52.018;5.584;2023-04-03T17:33:25;9.60;41.40